Наши проекты: NorthStarModels : Studio XIII : Wiki : Сувениры : Walkarounds : Новости
Войти Регистрация

Архив статей

Всего статей в архиве: 142

Апрель 2015 : 26

Id Раздел Название Просмотров оценок Дата
8488 1/35Meg Model 1/35 Т-90A - Танк с красными глазами 4915 15 30.4.15
8487 1/48AMG 1/48 И-153 - Первая чайка 5293 27 30.4.15
8486 1/72Звезда 1/72 ИС-2 образца 1944 года 3411 5 30.4.15
8485 1/48Hasegawa 1/48 McDonnell Douglas A-4M Skyhawk 5097 20 30.4.15
8468 Фигуры и солдатикиPerry Miniatures 28 mm - Колбасная артиллерия 2788 7 30.4.15
8481 1/48Revell 1/48 F-86D-35 Dog Sabre - Все псы попадают на небо 3928 20 30.4.15
8466 1/72Heller 1/72 JA-37 Viggen - Утка по имени Гром 3762 21 30.4.15
8484 1/72UM 1/72 1/72 Легкий танк Т-80 с орудием ВТ-43 2425 5 30.4.15
8479 АвтомобилиTamiya 1/24 Honda S2000 – Оседлай молнию! 3781 22 30.4.15
8480 1/72Конверсия 1/72 УПГ-250ГМ Передвижная гидравлическая установка 3755 19 30.4.15
8465 АвтомобилиTamiya 1/24 Nissan Skyline GT-R 3995 7 30.4.15
8483 1/35Dragon 1/35 M4A2 Sherman USMC - Тихоокеанский ежик 2544 10 30.4.15
8474 1/72Revell 1/72 Sd.Kfz.9 18t FAMO 1529 7 30.4.15
8462 1/72Airfix 1/72 P-40B Tomahawk 3rd Squadron AVG Charles Older 3022 2 30.4.15
8482 1/72Historic Wings 1/72 Santos Dumont-14bis - француз по-английски 2189 8 29.4.15
8478 КораблиRevell 1/350 DKM Bismarck 4385 15 29.4.15
8459 1/48Azur 1/48 Loire 130M 3019 39 29.4.15
8477 1/72AirKits / Kajuk 1/72 АНТ-7 СССР Н-166 4858 37 29.4.15
8475 1/72ICM 1/72 ЗиЛ-131 Лесовоз 3483 15 29.4.15
8458 Другие масштабыOTAKI 1/144 C-5 A/B Galaxy 3374 13 29.4.15
8471 1/35Takom 1/35 Tank Mark IV Female - Кровожадная самка 3427 13 29.4.15
8470 АвтомобилиHasegawa 1/24 Lancia Super Delta 1992 WRC Makes Champion 4245 20 29.4.15
8457 Аниме Garage Kits / ФэнтезиYoko Littner - Real version 6423 29 29.4.15
8469 1/48GWH/Monogram 1/48 P-61B Black Widow / Lady in the Dark - моя любимая вдовушка 6793 37 29.4.15
8473 1/72Trumpeter 1/72 M1126 Stryker ICV 1787 4 29.4.15
8456 1/72Revell 1/72 Dornier Do-228 2531 13 29.4.15
8455 Диорамыalpine miniatures и black dog 1362 14 28.4.15
8451 Диорамы1942 аэродром Казатин, под Винницей. 1525 -10 28.4.15
8453 1/35Восточный экспресс 1/35 БА-6 2137 1 28.4.15
8450 1/48ICM 1/48 ЛаГГ-3 11-й серии - Дитя триумвирата 4292 42 28.4.15
8463 АвтомобилиTamiya 1/24 Lexus LFA - Еще один 2243 4 28.4.15
8454 1/48Hasegawa 1/48 J-35J Draken 4031 21 28.4.15
8467 РазноеXI-я московская выставка стендового моделизма День Победы 3725 12 28.4.15
8448 1/35Alanger 1/35 Т-35 3567 12 27.4.15
8447 РазноеОбзор Bandai 1/48 AT-ST 4753 16 27.4.15
8446 Фигуры и солдатики1/9 Флибустьер 1508 2 27.4.15
8444 1/72Амодел 1/72 Ми-6 Полярный трудяга 3606 30 26.4.15
8442 1/48Звезда 1/48 Су-2М-88Б 9876 57 26.4.15
8443 1/48Italeri 1/48 Macchi C.200 - Колечки, дубль второй 5245 38 26.4.15
8441 Фигуры и солдатикиPerry Miniatures 28 mm Венгерские гренадеры. 3399 9 26.4.15
8440 1/35Звезда 1/35 БМПТ Терминатор 4218 17 25.4.15
8439 Другие масштабыВосточный экспресс 1/144 Ан-22 Антей 4109 20 25.4.15
8438 1/48Eduard 1/48 Nieuport-23 N4187 из состава 3-й БАГ 22-го КАО 3588 14 25.4.15
8437 1/72ICM 1/72 И-153 Чайка 5744 28 25.4.15
8436 ДиорамыДиорама 1/35 На Берлин! 2121 4 24.4.15
8435 1/35ArkModels 1/35 Flakpanzer 38t 1548 2 24.4.15
8434 1/48Hasegawa 1/48 P-39N Airacobra 3669 12 24.4.15
8449 Аниме Garage Kits / ФэнтезиScale75 75mm Carla McCarthy 2876 11 24.4.15
8429 1/35Tamiya 1/35 Cromwell Mk.VII - Английский крейсерский танк 2233 10 24.4.15
8433 1/48Academy 1/48 Ah-64A Peten - Петенька, иудей из рода Апачей 5469 56 23.4.15
8426 1/35Tamiya 1/35 British Chieftain Mk.V 3516 9 23.4.15
8432 1/48Revell 1/48 Lockheed PV-1 Ventura 3719 22 23.4.15
8425 1/35Звезда 1/35 Mercedes Benz L4500R Maultier 2444 7 23.4.15
8431 1/35MiniArt 1/35 Caterpillar D7 w/TOWING WINCH D7N 5411 21 22.4.15
8428 1/35Tamiya 1/35 БТ-7 обр.1937г. Осень 1941г. 2964 8 22.4.15
8424 1/32Hasegawa 1/32 Bf-109G-6 1836 4 22.4.15
8420 1/48Hobby Boss 1/48 Як-38 7247 44 22.4.15
8427 1/48ARK models 1/48 И-16 Бориса Сафонова 3738 18 21.4.15
8423 1/32Обзор Hasegawa 1/32 P-40 E/K Warhawk Flying Тigers 3295 -2 21.4.15
8422 1/35Звезда/Italeri 1/35 Т-VI ТИГР-1 мод. Е/Н1 2147 13 21.4.15
8419 1/48Italeri 1/48 BAe Hawk 3764 29 21.4.15
8430 РазноеUgramodel-2015 3747 16 20.4.15
8421 1/72Heller 1/72 PZL P. 11c 3954 29 20.4.15
8418 1/48Eduard 1/48 МиГ-21МФ 5736 47 20.4.15
8417 ДиорамыДиорама 1/35 Держись, родненький! 3111 2 20.4.15
8416 1/48Звезда 1/48 Ла-5ФН 3638 13 19.4.15
8414 КораблиСамоделка 1/700 SSP Kaimalino 2514 12 19.4.15
8413 1/72Амодел 1/72 Ан-22 Антей - Античный герой 6517 39 19.4.15
8412 1/48Airfix 1/48 De Havilland DH.110 Sea Vixen FAW.2 3486 11 19.4.15
8406 1/72Алангер 1/72 Ми-24А 3560 12 18.4.15
8410 1/48Обзор GoNzA 1/48 Травление для интерьера Як-3 4856 12 18.4.15
8408 1/72ICM 1/72 БТР-152К 3036 13 18.4.15
8409 1/72НОВО/FROG 1/72 BAC Lightning F.6 8668 66 18.4.15
8407 1/48Tamiya 1/48 F-84G Thunderjet - Громокряк 4188 23 17.4.15
8411 БТТ и военная техникаОбзор Alan 1/35 Sd.Kfz. 124 Wespe - оса, оса, хвать тебя за волоса 2646 2 17.4.15
8405 1/72Восточный Экспресс 1/72 Лагг-3 35 серии - Память 3672 29 17.4.15
8415 КораблиОбзор Звезда 1/350 линкор Марат 1941 г. 14537 20 17.4.15
8404 Фантастика (Sci-Fi)Evolution 54мм Сталкер 2783 9 16.4.15
8403 Фигуры и солдатикиArt Miniatures 54m Илья Муромец и Соловей разбойник 2377 15 16.4.15
8402 1/72Аce 1/72 ГАЗ-61-73 2504 13 16.4.15
8398 1/35Dragon 1/35 Tiger № 102 Schw. Pz. Abt. 502 1543 4 16.4.15
8400 1/72Обзор Fine Molds 1/72 Меsserschmitt Bf109G-10 3665 5 15.4.15
8396 1/72Ace 1/72 Газ-М-415 3161 8 15.4.15
8399 1/48Academy 1/48 Т-33А Shooting Star ВВС Южн. Кореи 2977 16 15.4.15
8392 Фигуры и солдатикиДрабант 28 мм Норманнский воин 1511 1 14.4.15
8389 1/72Italeri 1/72 Martin B-57G Canberra - Штурмовой бомбардировщик 3090 0 14.4.15
8393 Другие масштабыRevell 1/144 А-380 4076 12 14.4.15
8391 1/72AZmodel 1/72 L-410 Turbolet UVP Дуэт 5144 20 14.4.15
8378 1/48Tamiya 1/48 Grumman F4F-4 Wildcat 3324 9 13.4.15
8390 1/72Обзор Aeroplast 1/72 Ан-28/C-145 5952 19 13.4.15
8387 1/72Sword 1/72 Ki-61-II Hien 2703 18 13.4.15
8388 1/48Classic Airframes 1/48 Hawker Sea Hawk FGA.6 3317 12 13.4.15
8395 РазноеHasegawa Миг-15 EggPlane - Пасхальный МиГ 3153 18 12.4.15
8386 1/35Kinetic 1/35 RG-31 Mk.3 Canadian Army MRAP with RWS 2958 18 12.4.15
8385 1/48Виньетка - Самолеты Пьера Пуяда. Часть 2 4417 21 12.4.15
8380 1/48Виньетка - Самолеты Пьера Пуяда. Часть 1 3088 23 12.4.15
8384 1/35Dragon 1/35 StuG III Ausf.B - Символ вторжения 2052 5 11.4.15
8383 1/72S-Model 1/72 Pzkpfw.I ausf.A - где-то в Африке 1344 4 11.4.15
8397 РазноеРепортаж - Чемпионат России по стендовому судомоделизму 2015 7728 19 11.4.15
8381 Фигуры и солдатикиPerry Miniatures 28 mm Австрийская пешая артиллерия 1811 3 11.4.15
8382 РазноеНовоземельская физика и лирика 2975 14 11.4.15
8379 1/72Prop-n-Jet 1/72 Сталь-6 3125 23 10.4.15
8377 Аниме Garage Kits / ФэнтезиFG2968 EVA02 Asuka 2236 1 10.4.15
8365 Фантастика (Sci-Fi)Самодел 1/55 Haven 3200 21 10.4.15
8376 1/48ModelSvit 1/48 Як-1Б 4647 8 10.4.15
8374 1/72Italeri 1/72 Су-34 Красный 05 5690 27 9.4.15
8373 ДиорамыMastiff PPV (Protected Patrol Vehicle) 1/35 3556 11 9.4.15
8372 Фигуры и солдатикиСолдатики Публия 54m Франкский воин 5-6 вв. н.э. 3374 8 9.4.15
8364 Фантастика (Sci-Fi)Самодел 1/55 Haron 4214 29 9.4.15
8369 Аниме Garage Kits / ФэнтезиWarhammer FB 28mm Skaven Screaming Bell 2613 7 8.4.15
8371 1/35Dragon 1/35 Pz.Kpfw.III Ausf.J 2425 11 8.4.15
8370 1/72Tamiya 1/72 Ил-2М3 6076 43 8.4.15
8363 КораблиСамодел 1/55 Черная жемчужина 8611 17 8.4.15
8368 1/48Звезда 1/48 Су-2М-88Б 4727 35 7.4.15
8367 БТТ и военная техникаОбзор ICM 1/35 Т-34/76 (early 1943 production) 7248 0 7.4.15
8366 1/72Tamiya 1/72 Supermarine Spitfire Mk.VbTrop 2555 0 7.4.15
8362 КораблиСамодел 1/55 Месть королевы Анны 12800 35 7.4.15
8326 РазноеАвиационный музей Al Mahatta, г.Шардж, ОАЭ 2333 14 6.4.15
8361 КораблиСамодел 1/55 Летучий Голландец 8031 33 6.4.15
8359 Техники и секретыКак изготовить сложный рельеф на макете? 16328 2 6.4.15
8358 1/72Academy 1/72 Super Etendard 2596 5 6.4.15
8357 1/48Special Hobby 1/48 Nieuport10 – Крест Виктории за search-n-rescue 3387 28 5.4.15
8355 БТТ и военная техникаОбзор MiniArt 1/35 U.S. Army tractor w/angled dozer blade 3325 3 5.4.15
8354 Другие масштабыЗвезда 1/144 Ил-86 RA-86109 5557 19 5.4.15
8353 1/35Trumpeter 1/35 С-65 Сталинец - рабочий войны 3708 13 5.4.15
8352 1/48Hobbycraft 1/48 DH.100 Vampire - Этакий драндулет... 2806 9 4.4.15
8351 КораблиPacificCrossRoads 1/350 De Ruyter - Защитник заморских колоний 4029 27 4.4.15
8350 Фантастика (Sci-Fi)Dust Mode 1/35 Операция Немыслимое 6680 41 4.4.15
8343 Другие масштабыOбзор Соmet 1/82 F-84F Thunderstreak 1741 1 4.4.15
8356 АвтомобилиTamiya 1/24 Toyota Land Cruiser 80 With Sport Options 4015 8 3.4.15
8349 1/35Trumpeter 1/35 Т-64А 5148 21 3.4.15
8348 Фантастика (Sci-Fi)Citadel (GW) 1/60 Warhammer 40k ПТ-САУ Shadowsword 3548 17 3.4.15
8346 1/72Обзор К-n-К 1/72 Messerschmitt Bf109K-4 3806 4 3.4.15
8345 1/72Amodel 1/72 Ан-32 6414 40 2.4.15
8344 1/72ACE 1/72 БМД-1 Афганистан 3520 11 2.4.15
8347 1/72ICM 1/72 Ил-400Б 3276 13 2.4.15
8330 1/48Обзор Heller 1/48 Мirage 2000C 3678 1 2.4.15
8360 РазноеПрототип ракеты Энергия-ГАГАРИН! 2575 11 2.4.15
8341 1/48Roden 1/48 Gloster Sea Gladiator 4590 28 1.4.15
8340 КораблиЗвезда 1/72 Black pearl 5393 -2 1.4.15
8339 1/35HobbyBoss 1/35 Т-24 - Советский средний танк 3428 9 1.4.15
8334 1/72ICM 1/72 Dornier Do-215B-4 - Лишний для люфтваффе 4635 36 1.4.15
 Ноябрь, 2017 - 55
 Октябрь, 2017 - 69
 Сентябрь, 2017 - 86
 Август, 2017 - 68
 Июль, 2017 - 77
 Июнь, 2017 - 74
 Май, 2017 - 71
 Апрель, 2017 - 119
 Март, 2017 - 108
 Февраль, 2017 - 113
 Январь, 2017 - 84
 Декабрь, 2016 - 98
 Ноябрь, 2016 - 86
 Октябрь, 2016 - 61
 Сентябрь, 2016 - 75
 Август, 2016 - 65
 Июль, 2016 - 92
 Июнь, 2016 - 87
 Май, 2016 - 88
 Апрель, 2016 - 168
 Март, 2016 - 132
 Февраль, 2016 - 118
 Январь, 2016 - 122
 Декабрь, 2015 - 113
 Ноябрь, 2015 - 114
 Октябрь, 2015 - 116
 Сентябрь, 2015 - 80
 Август, 2015 - 75
 Июль, 2015 - 96
 Июнь, 2015 - 86
 Май, 2015 - 88
 Апрель, 2015 - 142
 Март, 2015 - 124
 Февраль, 2015 - 90
 Январь, 2015 - 99
 Декабрь, 2014 - 88
 Ноябрь, 2014 - 69
 Октябрь, 2014 - 99
 Сентябрь, 2014 - 61
 Август, 2014 - 65
 Июль, 2014 - 69
 Июнь, 2014 - 83
 Май, 2014 - 59
 Апрель, 2014 - 108
 Март, 2014 - 107
 Февраль, 2014 - 81
 Январь, 2014 - 104
 Декабрь, 2013 - 81
 Ноябрь, 2013 - 90
 Октябрь, 2013 - 90
 Сентябрь, 2013 - 78
 Август, 2013 - 72
 Июль, 2013 - 63
 Июнь, 2013 - 71
 Май, 2013 - 73
 Апрель, 2013 - 109
 Март, 2013 - 77
 Февраль, 2013 - 74
 Январь, 2013 - 75
 Декабрь, 2012 - 70
 Ноябрь, 2012 - 93
 Октябрь, 2012 - 88
 Сентябрь, 2012 - 78
 Август, 2012 - 69
 Июль, 2012 - 64
 Июнь, 2012 - 86
 Май, 2012 - 81
 Апрель, 2012 - 100
 Март, 2012 - 99
 Февраль, 2012 - 87
 Январь, 2012 - 81
 Декабрь, 2011 - 77
 Ноябрь, 2011 - 86
 Октябрь, 2011 - 69
 Сентябрь, 2011 - 79
 Август, 2011 - 97
 Июль, 2011 - 72
 Июнь, 2011 - 78
 Май, 2011 - 77
 Апрель, 2011 - 106
 Март, 2011 - 111
 Февраль, 2011 - 82
 Январь, 2011 - 93
 Декабрь, 2010 - 87
 Ноябрь, 2010 - 70
 Октябрь, 2010 - 80
 Сентябрь, 2010 - 78
 Август, 2010 - 88
 Июль, 2010 - 78
 Июнь, 2010 - 86
 Май, 2010 - 94
 Апрель, 2010 - 117
 Март, 2010 - 95
 Февраль, 2010 - 117
 Январь, 2010 - 76
 Декабрь, 2009 - 78
 Ноябрь, 2009 - 85
 Октябрь, 2009 - 79
 Сентябрь, 2009 - 85
 Август, 2009 - 75
 Июль, 2009 - 71
 Июнь, 2009 - 49
 Май, 2009 - 54
 Апрель, 2009 - 103
 Март, 2009 - 81
 Февраль, 2009 - 61
 Январь, 2009 - 51
 Декабрь, 2008 - 57
 Ноябрь, 2008 - 50
 Октябрь, 2008 - 74
 Сентябрь, 2008 - 33
 Август, 2008 - 47
 Июль, 2008 - 37
 Июнь, 2008 - 55
 Май, 2008 - 57
 Апрель, 2008 - 55
 Март, 2008 - 51
 Февраль, 2008 - 43
 Январь, 2008 - 48
 Декабрь, 2007 - 28
 Ноябрь, 2007 - 39
 Октябрь, 2007 - 62
 Сентябрь, 2007 - 17
 Август, 2007 - 32
 Июль, 2007 - 27
 Июнь, 2007 - 32
 Май, 2007 - 20
 Апрель, 2007 - 22
 Март, 2007 - 23
 Февраль, 2007 - 28
 Январь, 2007 - 31
 Декабрь, 2006 - 14
 Ноябрь, 2006 - 28
 Октябрь, 2006 - 23
 Сентябрь, 2006 - 14
 Август, 2006 - 15
 Июль, 2006 - 17
 Июнь, 2006 - 14
 Май, 2006 - 12
 Апрель, 2006 - 5
 Март, 2006 - 17
 Февраль, 2006 - 8
 Январь, 2006 - 3
 Ноябрь, 2005 - 3
 Октябрь, 2005 - 3
 Сентябрь, 2005 - 9
 Август, 2005 - 14
 Июль, 2005 - 1
добавить на Яндекс
ScaleModels.ru - сборные масштабные модели. © 2005-2015. Работаем на сервере FastVPS.ru
Privacy Policy